createdAt,value
2022-07-27T00:00:48.089Z,20.21
2022-07-27T00:03:15.068Z,20.08
2022-07-27T00:05:41.944Z,19.98
2022-07-27T00:08:08.706Z,19.94
2022-07-27T00:10:36.654Z,19.89
2022-07-27T00:13:04.776Z,19.93
2022-07-27T00:15:31.870Z,19.91
2022-07-27T00:18:01.085Z,19.90
2022-07-27T00:20:28.929Z,19.99
2022-07-27T00:22:56.217Z,20.11
2022-07-27T00:25:26.957Z,20.31
2022-07-27T00:27:53.842Z,20.40
2022-07-27T00:30:21.485Z,20.47
2022-07-27T00:32:48.393Z,20.50
2022-07-27T00:35:15.174Z,20.38
2022-07-27T00:37:43.124Z,20.16
2022-07-27T00:40:10.560Z,20.13
2022-07-27T00:42:37.436Z,20.17
2022-07-27T00:45:05.618Z,20.22
2022-07-27T00:47:32.514Z,20.22
2022-07-27T00:49:59.677Z,20.27
2022-07-27T00:52:28.631Z,20.36
2022-07-27T00:54:55.818Z,20.44
2022-07-27T00:57:23.412Z,20.47
2022-07-27T00:59:50.187Z,20.49
2022-07-27T01:02:19.596Z,20.48
2022-07-27T01:04:47.297Z,20.48
2022-07-27T01:07:15.128Z,20.51
2022-07-27T01:09:58.197Z,20.52
2022-07-27T01:12:28.495Z,20.54
2022-07-27T01:14:58.029Z,20.49
2022-07-27T01:17:26.714Z,20.44
2022-07-27T01:19:54.125Z,20.50
2022-07-27T01:22:21.128Z,20.55
2022-07-27T01:24:49.555Z,20.57
2022-07-27T01:27:16.308Z,20.65
2022-07-27T01:29:43.173Z,20.66
2022-07-27T01:32:09.986Z,20.56
2022-07-27T01:34:36.711Z,20.50
2022-07-27T01:37:04.909Z,20.50
2022-07-27T01:39:33.111Z,20.50
2022-07-27T01:42:00.783Z,20.46
2022-07-27T01:44:27.831Z,20.33
2022-07-27T01:46:54.903Z,20.27
2022-07-27T01:49:22.276Z,20.21
2022-07-27T01:51:49.094Z,20.10
2022-07-27T01:54:16.242Z,20.00
2022-07-27T01:56:43.324Z,20.01
2022-07-27T01:59:16.353Z,20.01
2022-07-27T02:01:44.854Z,19.98
2022-07-27T02:04:11.818Z,20.05
2022-07-27T02:06:38.465Z,20.16
2022-07-27T02:09:05.590Z,20.24
2022-07-27T02:11:50.882Z,20.30
2022-07-27T02:14:17.673Z,20.38
2022-07-27T02:16:48.037Z,20.41
2022-07-27T02:19:16.987Z,20.35
2022-07-27T02:21:45.107Z,20.20
2022-07-27T02:24:11.772Z,20.10
2022-07-27T02:26:38.476Z,19.96
2022-07-27T02:29:05.407Z,19.96
2022-07-27T02:31:32.958Z,20.03
2022-07-27T02:34:00.293Z,20.10
2022-07-27T02:36:29.449Z,20.18
2022-07-27T02:38:57.410Z,20.21
2022-07-27T02:41:24.487Z,20.17
2022-07-27T02:43:51.340Z,20.06
2022-07-27T02:46:18.232Z,20.14
2022-07-27T02:48:45.069Z,20.10
2022-07-27T02:51:11.848Z,19.88
2022-07-27T02:53:38.563Z,19.73
2022-07-27T02:56:05.371Z,19.68
2022-07-27T02:58:32.123Z,19.64
2022-07-27T03:00:59.003Z,19.56
2022-07-27T03:03:36.793Z,19.51
2022-07-27T03:06:07.816Z,19.63
2022-07-27T03:08:36.268Z,19.62
2022-07-27T03:11:04.388Z,19.49
2022-07-27T03:13:31.348Z,19.35
2022-07-27T03:15:58.687Z,19.36
2022-07-27T03:18:25.730Z,19.40
2022-07-27T03:20:52.484Z,19.27
2022-07-27T03:23:19.746Z,19.27
2022-07-27T03:25:46.484Z,19.29
2022-07-27T03:28:13.182Z,19.23
2022-07-27T03:30:40.008Z,19.01
2022-07-27T03:33:06.915Z,18.92
2022-07-27T03:35:33.826Z,18.92
2022-07-27T03:38:00.783Z,18.99
2022-07-27T03:40:29.664Z,19.09
2022-07-27T03:42:56.642Z,18.98
2022-07-27T03:45:23.539Z,18.96
2022-07-27T03:47:50.210Z,18.82
2022-07-27T03:50:17.298Z,18.76
2022-07-27T03:52:45.707Z,18.71
2022-07-27T03:55:12.638Z,18.75
2022-07-27T03:57:39.378Z,18.78
2022-07-27T04:00:07.433Z,18.81
2022-07-27T04:02:34.260Z,18.83
2022-07-27T04:05:00.977Z,18.84
2022-07-27T04:07:27.659Z,18.94
2022-07-27T04:09:54.383Z,19.10
2022-07-27T04:12:21.210Z,19.16
2022-07-27T04:14:48.032Z,19.11
2022-07-27T04:17:55.179Z,19.02
2022-07-27T04:20:07.307Z,18.88
2022-07-27T04:22:34.105Z,18.72
2022-07-27T04:25:00.968Z,18.71
2022-07-27T04:27:27.757Z,18.74
2022-07-27T04:29:54.701Z,18.63
2022-07-27T04:32:21.592Z,18.68
2022-07-27T04:34:48.403Z,18.63
2022-07-27T04:37:15.613Z,18.56
2022-07-27T04:39:42.456Z,18.36
2022-07-27T04:42:09.456Z,18.08
2022-07-27T04:44:36.120Z,18.05
2022-07-27T04:47:03.045Z,18.09
2022-07-27T04:49:29.809Z,17.90
2022-07-27T04:51:56.557Z,17.91
2022-07-27T04:54:23.364Z,18.02
2022-07-27T04:56:50.291Z,18.24
2022-07-27T04:59:16.984Z,18.42
2022-07-27T05:01:43.710Z,18.52
2022-07-27T05:04:11.435Z,18.61
2022-07-27T05:06:38.706Z,18.76
2022-07-27T05:09:05.506Z,18.69
2022-07-27T05:11:32.292Z,18.47
2022-07-27T05:13:59.080Z,18.52
2022-07-27T05:16:28.861Z,18.64
2022-07-27T05:18:56.544Z,18.75
2022-07-27T05:21:23.346Z,18.79
2022-07-27T05:23:50.127Z,18.81
2022-07-27T05:26:17.176Z,18.83
2022-07-27T05:28:43.923Z,18.80
2022-07-27T05:31:10.677Z,18.63
2022-07-27T05:33:37.372Z,18.64
2022-07-27T05:36:07.689Z,18.76
2022-07-27T05:38:39.388Z,18.83
2022-07-27T05:41:10.731Z,18.89
2022-07-27T05:43:37.565Z,18.89
2022-07-27T05:46:04.544Z,18.95
2022-07-27T05:48:31.467Z,18.99
2022-07-27T05:50:58.187Z,18.96
2022-07-27T05:53:25.285Z,18.94
2022-07-27T05:55:58.676Z,18.91
2022-07-27T05:58:28.197Z,18.86
2022-07-27T06:00:55.243Z,18.87
2022-07-27T06:03:22.871Z,18.92
2022-07-27T06:05:50.143Z,18.99
2022-07-27T06:08:16.946Z,19.04
2022-07-27T06:10:43.940Z,19.05
2022-07-27T06:13:14.278Z,19.06
2022-07-27T06:15:41.183Z,19.07
2022-07-27T06:18:15.014Z,19.09
2022-07-27T06:20:43.240Z,19.10
2022-07-27T06:23:11.200Z,19.06
2022-07-27T06:25:38.038Z,19.00
2022-07-27T06:28:05.536Z,18.99
2022-07-27T06:30:33.316Z,19.01
2022-07-27T06:33:00.203Z,19.01
2022-07-27T06:35:27.678Z,19.03
2022-07-27T06:37:54.447Z,19.03
2022-07-27T06:40:21.600Z,18.98
2022-07-27T06:42:48.612Z,18.99
2022-07-27T06:45:15.800Z,19.07
2022-07-27T06:47:49.415Z,19.12
2022-07-27T06:50:20.950Z,19.21
2022-07-27T06:52:48.418Z,19.23
2022-07-27T06:55:15.207Z,19.28
2022-07-27T06:57:42.992Z,19.30
2022-07-27T07:00:11.427Z,19.21
2022-07-27T07:02:38.643Z,19.04
2022-07-27T07:05:05.762Z,18.98
2022-07-27T07:07:32.572Z,19.07
2022-07-27T07:09:59.248Z,19.11
2022-07-27T07:12:28.475Z,19.14
2022-07-27T07:14:55.285Z,19.16
2022-07-27T07:17:22.083Z,19.19
2022-07-27T07:19:49.015Z,19.18
2022-07-27T07:22:15.857Z,19.15
2022-07-27T07:24:42.758Z,19.16
2022-07-27T07:27:09.515Z,19.13
2022-07-27T07:29:36.248Z,19.17
2022-07-27T07:32:03.100Z,19.24
2022-07-27T07:34:29.978Z,19.22
2022-07-27T07:36:56.778Z,19.16
2022-07-27T07:39:29.150Z,19.06
2022-07-27T07:41:58.152Z,19.07
2022-07-27T07:44:24.969Z,19.24
2022-07-27T07:46:51.814Z,19.22
2022-07-27T07:49:21.460Z,19.31
2022-07-27T07:52:06.088Z,19.35
2022-07-27T07:54:32.914Z,19.37
2022-07-27T07:57:00.150Z,19.29
2022-07-27T07:59:27.188Z,19.11
2022-07-27T08:01:54.249Z,19.01
2022-07-27T08:04:21.189Z,19.11
2022-07-27T08:06:47.972Z,19.17
2022-07-27T08:09:17.165Z,19.16
2022-07-27T08:11:44.393Z,19.11
2022-07-27T08:14:11.473Z,19.11
2022-07-27T08:16:39.057Z,19.01
2022-07-27T08:19:06.296Z,18.73
2022-07-27T08:21:36.580Z,18.47
2022-07-27T08:24:03.896Z,18.38
2022-07-27T08:26:30.821Z,18.29
2022-07-27T08:28:59.342Z,18.30
2022-07-27T08:31:52.306Z,18.47
2022-07-27T08:34:18.415Z,18.67
2022-07-27T08:36:45.493Z,18.88
2022-07-27T08:39:41.199Z,19.13
2022-07-27T08:42:04.751Z,19.33
2022-07-27T08:44:33.434Z,19.47
2022-07-27T08:47:02.565Z,19.52
2022-07-27T08:49:42.507Z,19.56
2022-07-27T08:52:11.719Z,19.50
2022-07-27T08:54:40.703Z,19.58
2022-07-27T08:57:11.102Z,19.62
2022-07-27T08:59:38.406Z,19.48
2022-07-27T09:02:10.715Z,19.56
2022-07-27T09:04:40.731Z,19.55
2022-07-27T09:07:07.639Z,19.55
2022-07-27T09:09:46.174Z,19.63
2022-07-27T09:12:13.060Z,19.68
2022-07-27T09:14:41.745Z,19.75
2022-07-27T09:20:18.448Z,19.50
2022-07-27T09:22:54.344Z,19.71
2022-07-27T09:25:52.150Z,19.83
2022-07-27T09:28:11.969Z,19.86
2022-07-27T09:30:43.336Z,20.00
2022-07-27T09:33:10.633Z,20.06
2022-07-27T09:35:37.971Z,20.09
2022-07-27T09:38:18.876Z,20.11
2022-07-27T09:40:46.708Z,20.11
2022-07-27T09:46:09.870Z,19.89
2022-07-27T09:48:36.903Z,19.66
2022-07-27T09:51:43.553Z,19.71
2022-07-27T09:53:55.379Z,19.96
2022-07-27T09:56:32.772Z,20.04
2022-07-27T09:59:01.679Z,19.98
2022-07-27T10:01:33.125Z,20.19
2022-07-27T10:04:02.876Z,20.49
2022-07-27T10:06:38.982Z,20.76
2022-07-27T10:09:14.992Z,20.96
2022-07-27T10:11:42.024Z,21.15
2022-07-27T10:14:10.891Z,21.13
2022-07-27T10:16:40.188Z,20.94
2022-07-27T10:19:14.168Z,20.88
2022-07-27T10:21:46.103Z,20.95
2022-07-27T10:24:29.109Z,21.00
2022-07-27T10:26:56.387Z,21.29
2022-07-27T10:29:24.614Z,21.69
2022-07-27T10:31:54.055Z,21.68
2022-07-27T10:34:40.871Z,21.23
2022-07-27T10:37:16.141Z,21.09
2022-07-27T10:39:51.210Z,20.94
2022-07-27T10:42:25.820Z,21.00
2022-07-27T10:44:55.343Z,21.86
2022-07-27T10:47:37.946Z,22.72
2022-07-27T10:50:17.037Z,22.80
2022-07-27T10:52:56.621Z,22.73
2022-07-27T10:55:32.721Z,23.07
2022-07-27T10:58:11.309Z,23.46
2022-07-27T11:00:57.460Z,23.95
2022-07-27T11:03:25.796Z,24.02
2022-07-27T11:06:21.964Z,23.92
2022-07-27T11:09:17.087Z,24.02
2022-07-27T11:11:38.799Z,24.09
2022-07-27T11:14:05.785Z,24.10
2022-07-27T11:16:37.029Z,24.29
2022-07-27T11:19:17.741Z,24.40
2022-07-27T11:21:46.647Z,24.63
2022-07-27T11:24:17.190Z,24.02
2022-07-27T11:26:47.018Z,24.20
2022-07-27T11:29:16.050Z,24.68
2022-07-27T11:31:55.427Z,24.95
2022-07-27T11:34:30.675Z,25.03
2022-07-27T11:37:01.921Z,25.27
2022-07-27T11:42:18.579Z,26.12
2022-07-27T11:44:48.094Z,26.44
2022-07-27T11:47:19.734Z,26.74
2022-07-27T11:49:46.678Z,26.65
2022-07-27T11:52:17.773Z,26.63
2022-07-27T11:54:51.322Z,26.78
2022-07-27T11:57:19.042Z,26.39
2022-07-27T11:59:46.281Z,26.39
2022-07-27T12:02:17.898Z,26.80
2022-07-27T12:04:49.506Z,26.91
2022-07-27T12:07:17.216Z,26.24
2022-07-27T12:09:51.656Z,25.44
2022-07-27T12:12:28.374Z,25.40
2022-07-27T12:14:57.746Z,25.52
2022-07-27T12:17:29.069Z,25.73
2022-07-27T12:20:05.365Z,26.12
2022-07-27T12:22:38.315Z,26.40
2022-07-27T12:25:17.582Z,26.87
2022-07-27T12:27:56.599Z,27.34
2022-07-27T12:30:47.855Z,27.49
2022-07-27T12:33:37.419Z,27.72
2022-07-27T12:36:06.672Z,27.75
2022-07-27T12:38:48.894Z,27.45
2022-07-27T12:41:26.759Z,27.12
2022-07-27T12:44:12.095Z,26.55
2022-07-27T12:46:55.768Z,26.54
2022-07-27T12:49:26.722Z,26.35
2022-07-27T12:51:53.499Z,26.27
2022-07-27T12:54:20.257Z,26.33
2022-07-27T12:56:48.700Z,26.25
2022-07-27T12:59:15.829Z,26.41
2022-07-27T13:01:42.843Z,26.69
2022-07-27T13:04:09.677Z,26.98
2022-07-27T13:06:36.384Z,26.81
2022-07-27T13:09:03.488Z,26.61
2022-07-27T13:11:30.254Z,25.89
2022-07-27T13:13:56.915Z,25.50
2022-07-27T13:16:23.835Z,25.59
2022-07-27T13:18:50.583Z,25.87
2022-07-27T13:21:17.310Z,25.93
2022-07-27T13:23:45.864Z,25.80
2022-07-27T13:26:13.055Z,25.69
2022-07-27T13:28:40.170Z,25.81
2022-07-27T13:31:07.104Z,25.84
2022-07-27T13:33:33.873Z,26.06
2022-07-27T13:36:01.203Z,26.15
2022-07-27T13:38:28.758Z,26.01
2022-07-27T13:40:55.978Z,25.47
2022-07-27T13:43:22.791Z,25.47
2022-07-27T13:45:49.747Z,25.71
2022-07-27T13:48:16.718Z,25.93
2022-07-27T13:50:45.695Z,26.02
2022-07-27T13:53:15.238Z,26.26
2022-07-27T13:55:43.361Z,26.24
2022-07-27T13:58:11.913Z,25.53
2022-07-27T14:00:39.489Z,25.22
2022-07-27T14:03:09.258Z,24.66
2022-07-27T14:05:38.154Z,24.20
2022-07-27T14:08:08.595Z,24.35
2022-07-27T14:10:44.619Z,24.44
2022-07-27T14:13:14.842Z,24.54
2022-07-27T14:15:53.700Z,24.43
2022-07-27T14:18:27.563Z,24.54
2022-07-27T14:20:56.760Z,24.46
2022-07-27T14:23:25.238Z,24.37
2022-07-27T14:25:53.838Z,24.21
2022-07-27T14:28:21.428Z,24.14
2022-07-27T14:30:49.850Z,23.93
2022-07-27T14:33:18.297Z,23.70
2022-07-27T14:35:46.504Z,24.04
2022-07-27T14:38:13.585Z,24.36
2022-07-27T14:40:52.874Z,24.65
2022-07-27T14:43:21.341Z,24.78
2022-07-27T14:45:48.522Z,24.80
2022-07-27T14:48:25.058Z,24.95
2022-07-27T14:50:55.549Z,25.09
2022-07-27T14:53:22.500Z,25.06
2022-07-27T14:55:49.394Z,25.03
2022-07-27T14:58:16.428Z,25.03
2022-07-27T15:00:43.596Z,25.19
2022-07-27T15:03:42.455Z,24.82
2022-07-27T18:08:10.526Z,21.45
2022-07-27T18:10:38.778Z,21.48
2022-07-27T18:13:08.739Z,21.53
2022-07-27T18:15:48.301Z,21.50
2022-07-27T18:18:22.049Z,21.46
2022-07-27T18:20:52.406Z,21.31
2022-07-27T18:23:20.968Z,21.23
2022-07-27T18:25:47.958Z,21.17
2022-07-27T18:28:16.392Z,20.99
2022-07-27T18:30:44.098Z,20.90
2022-07-27T18:33:10.999Z,20.82
2022-07-27T18:35:37.998Z,20.77
2022-07-27T18:38:08.075Z,20.71
2022-07-27T18:40:35.947Z,20.66
2022-07-27T18:43:04.973Z,20.65
2022-07-27T18:45:34.190Z,20.63
2022-07-27T18:48:01.874Z,20.64
2022-07-27T18:50:28.972Z,20.65
2022-07-27T18:52:57.112Z,20.64
2022-07-27T18:55:25.197Z,20.61
2022-07-27T18:57:54.447Z,20.58
2022-07-27T19:00:23.025Z,20.56
2022-07-27T19:06:50.144Z,20.40
2022-07-27T19:09:17.229Z,20.30
2022-07-27T19:11:46.904Z,20.19
2022-07-27T19:14:15.459Z,20.06
2022-07-27T19:16:43.822Z,19.96
2022-07-27T19:19:15.757Z,19.88
2022-07-27T19:21:44.409Z,19.82
2022-07-27T19:24:12.886Z,19.76
2022-07-27T19:26:41.234Z,19.70
2022-07-27T19:29:11.305Z,19.64
2022-07-27T19:31:39.362Z,19.57
2022-07-27T19:34:15.373Z,19.51
2022-07-27T19:36:42.709Z,19.38
2022-07-27T19:39:10.327Z,19.22
2022-07-27T19:41:38.514Z,19.14
2022-07-27T19:44:07.860Z,18.98
2022-07-27T19:46:35.632Z,18.84
2022-07-27T19:49:04.197Z,18.69
2022-07-27T19:51:32.135Z,18.65
2022-07-27T19:54:00.172Z,18.70
2022-07-27T19:56:27.449Z,18.79
2022-07-27T19:59:00.202Z,18.85
2022-07-27T20:01:27.711Z,18.86
2022-07-27T20:03:56.648Z,18.84
2022-07-27T20:06:25.074Z,18.83
2022-07-27T20:08:56.248Z,18.81
2022-07-27T20:11:23.881Z,18.78
2022-07-27T20:13:51.189Z,18.75
2022-07-27T20:16:18.542Z,18.69
2022-07-27T20:18:45.545Z,18.61
2022-07-27T20:21:20.123Z,18.37
2022-07-27T20:23:52.796Z,18.10
2022-07-27T20:26:21.008Z,17.90
2022-07-27T20:28:50.322Z,17.65
2022-07-27T20:31:22.771Z,17.53
2022-07-27T20:33:52.322Z,17.56
2022-07-27T20:36:19.957Z,17.68
2022-07-27T20:38:47.790Z,17.75
2022-07-27T20:41:15.155Z,17.77
2022-07-27T20:43:42.125Z,17.78
2022-07-27T20:46:09.365Z,17.73
2022-07-27T20:48:37.936Z,17.71
2022-07-27T20:51:05.235Z,17.72
2022-07-27T20:53:32.383Z,17.66
2022-07-27T20:55:59.819Z,17.60
2022-07-27T20:58:27.650Z,17.56
2022-07-27T21:00:55.046Z,17.55
2022-07-27T21:03:22.388Z,17.59
2022-07-27T21:05:49.244Z,17.57
2022-07-27T21:08:16.015Z,17.49
2022-07-27T21:10:42.818Z,17.43
2022-07-27T21:13:09.519Z,17.34
2022-07-27T21:15:36.252Z,17.26
2022-07-27T21:18:03.020Z,17.27
2022-07-27T21:20:29.912Z,17.27
2022-07-27T21:23:15.491Z,17.18
2022-07-27T21:25:43.950Z,16.98
2022-07-27T21:28:16.922Z,16.89
2022-07-27T21:30:45.639Z,16.78
2022-07-27T21:33:12.533Z,16.70
2022-07-27T21:35:39.310Z,16.61
2022-07-27T21:38:06.388Z,16.52
2022-07-27T21:40:33.801Z,16.48
2022-07-27T21:43:01.138Z,16.39
2022-07-27T21:45:28.266Z,16.25
2022-07-27T21:47:55.160Z,16.15
2022-07-27T21:50:22.075Z,16.08
2022-07-27T21:52:48.900Z,16.00
2022-07-27T21:55:22.678Z,15.90
2022-07-27T21:57:51.178Z,15.82
2022-07-27T22:00:25.623Z,15.74
2022-07-27T22:02:52.691Z,15.70
2022-07-27T22:05:19.542Z,15.68
2022-07-27T22:07:46.221Z,15.66
2022-07-27T22:10:12.980Z,15.63
2022-07-27T22:12:39.730Z,15.61
2022-07-27T22:15:06.991Z,15.70
2022-07-27T22:17:33.751Z,15.80
2022-07-27T22:20:00.529Z,15.81
2022-07-27T22:22:27.475Z,15.80
2022-07-27T22:24:54.253Z,15.73
2022-07-27T22:27:21.225Z,15.71
2022-07-27T22:29:48.040Z,15.68
2022-07-27T22:32:14.836Z,15.66
2022-07-27T22:34:42.112Z,15.65
2022-07-27T22:37:09.103Z,15.66
2022-07-27T22:39:35.996Z,15.66
2022-07-27T22:42:06.769Z,15.72
2022-07-27T22:44:37.446Z,15.85
2022-07-27T22:47:05.837Z,15.86
2022-07-27T22:49:36.171Z,15.99
2022-07-27T22:52:04.426Z,16.07
2022-07-27T22:54:35.236Z,15.99
2022-07-27T22:57:02.769Z,15.81
2022-07-27T22:59:29.597Z,15.70
2022-07-27T23:01:56.650Z,15.67
2022-07-27T23:04:23.521Z,15.62
2022-07-27T23:06:50.523Z,15.60
2022-07-27T23:09:17.528Z,15.57
2022-07-27T23:11:45.239Z,15.41
2022-07-27T23:14:12.904Z,15.30
2022-07-27T23:16:40.176Z,15.29
2022-07-27T23:19:06.974Z,15.26
2022-07-27T23:21:34.075Z,15.28
2022-07-27T23:24:03.168Z,15.31
2022-07-27T23:26:32.044Z,15.25
2022-07-27T23:29:00.400Z,15.28
2022-07-27T23:31:27.451Z,15.36
2022-07-27T23:33:54.251Z,15.34
2022-07-27T23:36:21.546Z,15.28
2022-07-27T23:38:48.282Z,15.23
2022-07-27T23:41:16.583Z,15.19
2022-07-27T23:43:44.104Z,15.26
2022-07-27T23:46:12.142Z,15.31
2022-07-27T23:48:38.912Z,15.29
2022-07-27T23:51:05.753Z,15.30
2022-07-27T23:53:32.436Z,15.32
2022-07-27T23:55:59.090Z,15.35
2022-07-27T23:58:25.857Z,15.36
